Time;durP1;ratioP1;P1;durP2;ratioP2;P2;SDS_P1;SDS_P2;PMS_P1;PMS_P2;Temp;Humidity;BMP_temperature;BMP_pressure;BME280_temperature;BME280_humidity;BME280_pressure;Samples;Min_cycle;Max_cycle;Signal;HPM_P1;HPM_P2
2022/01/13 00:01:29;;;;;;;;;;;;;;;7.25;57.35;103041.13;5047125;28;6800;-70
2022/01/13 00:03:55;;;;;;;;;;;;;;;7.26;57.86;103043.88;5031635;28;6997;-70
2022/01/13 00:06:20;;;;;;;;;;;;;;;7.25;58.10;103047.16;5048983;28;7879;-70
2022/01/13 00:08:46;;;;;;;;;;;;;;;7.24;57.83;103045.31;5034988;28;6899;-70
2022/01/13 00:11:12;;;;;;;;;;;;;;;7.21;57.13;103040.84;5048015;28;7041;-70
2022/01/13 00:13:51;;;;;;;;;;;;;;;7.16;57.63;103041.97;5048633;28;6783;-70
2022/01/13 00:16:36;;;;;;;;;;;;;;;7.11;57.17;103040.63;5033739;28;6811;-70
2022/01/13 00:19:34;;;;;;;;;;;;;;;7.07;57.96;103033.38;5030274;28;8851;-70
2022/01/13 00:22:03;;;;;;;;;;;;;;;7.04;57.99;103033.94;5038692;28;6887;-70
2022/01/13 00:24:29;;;;;;;;;;;;;;;6.99;57.39;103042.78;5028271;28;6979;-70
2022/01/13 00:26:55;;;;;;;;;;;;;;;6.97;57.68;103034.06;5028585;28;7055;-70
2022/01/13 00:29:28;;;;;;;;;;;;;;;6.93;57.34;103032.84;5044200;28;6808;-70
2022/01/13 00:31:54;;;;;;;;;;;;;;;6.90;58.13;103040.16;5045526;28;7270;-70
2022/01/13 00:34:20;;;;;;;;;;;;;;;6.86;58.11;103037.16;5024983;28;6812;-70
2022/01/13 00:36:45;;;;;;;;;;;;;;;6.84;58.29;103033.50;5043310;28;7188;-70
2022/01/13 00:39:14;;;;;;;;;;;;;;;6.83;58.17;103030.06;5028360;28;7943;-70
2022/01/13 00:41:40;;;;;;;;;;;;;;;6.86;58.13;103030.38;5028797;28;6894;-70
2022/01/13 00:44:08;;;;;;;;;;;;;;;6.88;58.29;103041.63;5025463;28;8384;-71
2022/01/13 00:46:42;;;;;;;;;;;;;;;6.88;58.43;103028.00;5026984;28;7302;-70
2022/01/13 00:49:11;;;;;;;;;;;;;;;6.88;58.48;103038.19;5024938;28;6832;-70
2022/01/13 00:51:37;;;;;;;;;;;;;;;6.86;57.80;103044.78;5048179;28;6889;-70
2022/01/13 00:54:05;;;;;;;;;;;;;;;6.84;57.87;103046.25;5025436;28;6919;-70
2022/01/13 00:56:33;;;;;;;;;;;;;;;6.83;58.63;103045.38;5023188;28;7028;-70
2022/01/13 00:59:00;;;;;;;;;;;;;;;6.81;57.98;103044.31;5002635;28;7335;-70
2022/01/13 01:01:26;;;;;;;;;;;;;;;6.78;58.32;103046.50;5025330;28;6982;-70
2022/01/13 01:03:52;;;;;;;;;;;;;;;6.77;58.19;103044.69;5027175;28;6804;-70
2022/01/13 01:06:18;;;;;;;;;;;;;;;6.76;57.93;103048.00;5026359;28;6965;-70
2022/01/13 01:08:45;;;;;;;;;;;;;;;6.77;58.23;103055.81;5027763;28;6791;-70
2022/01/13 01:11:11;;;;;;;;;;;;;;;6.78;58.41;103057.63;5028793;28;7944;-70
2022/01/13 01:13:38;;;;;;;;;;;;;;;6.80;58.38;103056.13;5042406;28;6791;-70
2022/01/13 01:16:10;;;;;;;;;;;;;;;6.82;58.54;103053.75;5043762;28;7203;-70
2022/01/13 01:26:43;;;;;;;;;;;;;;;6.86;58.56;103063.53;5031686;28;6808;-70
2022/01/13 01:31:50;;;;;;;;;;;;;;;6.89;58.50;103071.50;5028424;28;7137;-70
2022/01/13 01:36:55;;;;;;;;;;;;;;;6.86;57.88;103055.88;5033693;28;6811;-70
2022/01/13 01:39:22;;;;;;;;;;;;;;;6.84;58.23;103057.38;5034053;28;6891;-70
2022/01/13 01:41:51;;;;;;;;;;;;;;;6.84;57.74;103061.53;5033298;28;7956;-70
2022/01/13 01:44:28;;;;;;;;;;;;;;;6.81;57.98;103050.28;5050668;28;6796;-70
2022/01/13 01:46:54;;;;;;;;;;;;;;;6.79;58.37;103049.22;5051249;28;7043;-70
2022/01/13 01:49:23;;;;;;;;;;;;;;;6.77;57.92;103045.63;5031901;28;7876;-70
2022/01/13 01:51:57;;;;;;;;;;;;;;;6.76;58.35;103046.38;5033192;28;7078;-70
2022/01/13 01:54:25;;;;;;;;;;;;;;;6.77;58.38;103042.16;5053692;28;6804;-70
2022/01/13 01:56:51;;;;;;;;;;;;;;;6.75;58.10;103048.75;5035188;28;6962;-70
2022/01/13 01:59:21;;;;;;;;;;;;;;;6.73;57.76;103056.22;5035381;28;6970;-70
2022/01/13 02:01:49;;;;;;;;;;;;;;;6.71;58.37;103055.16;5035272;28;7041;-70
2022/01/13 02:04:17;;;;;;;;;;;;;;;6.71;57.85;103060.25;5052530;28;7188;-70
2022/01/13 02:06:44;;;;;;;;;;;;;;;6.70;58.00;103063.53;5021683;28;7296;-70
2022/01/13 02:09:13;;;;;;;;;;;;;;;6.67;58.23;103066.66;5048457;28;6819;-70
2022/01/13 02:11:44;;;;;;;;;;;;;;;6.68;58.33;103062.50;5034942;28;7158;-70
2022/01/13 02:16:57;;;;;;;;;;;;;;;6.67;58.71;103070.88;5036378;28;7072;-70
2022/01/13 02:19:25;;;;;;;;;;;;;;;6.64;58.72;103068.91;5052006;28;6819;-70
2022/01/13 02:21:52;;;;;;;;;;;;;;;6.65;58.47;103072.34;5035263;28;6804;-70
2022/01/13 02:24:18;;;;;;;;;;;;;;;6.66;58.62;103063.94;5033246;28;6799;-70
2022/01/13 02:26:44;;;;;;;;;;;;;;;6.67;58.12;103065.78;5034226;28;6792;-70
2022/01/13 02:29:10;;;;;;;;;;;;;;;6.67;58.26;103065.78;5052730;28;6792;-70
2022/01/13 02:31:36;;;;;;;;;;;;;;;6.66;58.82;103066.50;5051457;28;6807;-70
2022/01/13 02:34:02;;;;;;;;;;;;;;;6.64;58.41;103068.91;5032799;28;7810;-70
2022/01/13 02:36:30;;;;;;;;;;;;;;;6.64;58.47;103070.53;5032323;28;7216;-70
2022/01/13 02:38:59;;;;;;;;;;;;;;;6.66;58.60;103069.03;5031643;28;6966;-70
2022/01/13 02:41:25;;;;;;;;;;;;;;;6.70;58.67;103067.72;5049640;28;7144;-70
2022/01/13 02:43:54;;;;;;;;;;;;;;;6.72;58.25;103066.28;5047864;28;7236;-70
2022/01/13 02:48:56;;;;;;;;;;;;;;;6.65;58.19;103057.03;5049078;28;6807;-70
2022/01/13 02:51:22;;;;;;;;;;;;;;;6.63;58.71;103062.00;5050160;28;6891;-70
2022/01/13 02:53:48;;;;;;;;;;;;;;;6.61;58.69;103065.13;5015043;28;7007;-70
2022/01/13 02:56:13;;;;;;;;;;;;;;;6.58;58.32;103058.03;5032891;28;6891;-70
2022/01/13 02:58:39;;;;;;;;;;;;;;;6.56;58.27;103053.50;5045865;28;6792;-70
2022/01/13 03:01:06;;;;;;;;;;;;;;;6.53;58.94;103052.44;5013528;28;6775;-70
2022/01/13 03:03:33;;;;;;;;;;;;;;;6.55;59.11;103051.69;5053964;28;6795;-70
2022/01/13 03:06:12;;;;;;;;;;;;;;;6.55;58.43;103051.69;5040934;28;6804;-70
2022/01/13 03:08:46;;;;;;;;;;;;;;;6.58;58.71;103054.59;5033937;28;6812;-70
2022/01/13 03:11:13;;;;;;;;;;;;;;;6.61;58.78;103057.47;5033754;28;6816;-70
2022/01/13 03:13:39;;;;;;;;;;;;;;;6.61;58.64;103063.44;5029769;28;6804;-70
2022/01/13 03:16:11;;;;;;;;;;;;;;;6.65;58.83;103067.25;5034000;28;6796;-70
2022/01/13 03:18:38;;;;;;;;;;;;;;;6.67;58.77;103063.22;5031946;28;6886;-70
2022/01/13 03:21:06;;;;;;;;;;;;;;;6.69;58.31;103061.75;5028856;28;6816;-70
2022/01/13 03:23:36;;;;;;;;;;;;;;;6.70;58.20;103053.34;5048468;28;8890;-70
2022/01/13 03:26:04;;;;;;;;;;;;;;;6.66;58.61;103056.28;5031370;28;6820;-70
2022/01/13 03:28:50;;;;;;;;;;;;;;;6.59;58.23;103052.19;5028558;28;7306;-70
2022/01/13 03:31:19;;;;;;;;;;;;;;;6.52;58.40;103050.66;5016266;28;6820;-70
2022/01/13 03:33:45;;;;;;;;;;;;;;;6.45;58.16;103050.72;5040109;28;7187;-70
2022/01/13 03:36:11;;;;;;;;;;;;;;;6.42;58.67;103045.31;5031837;28;6958;-70
2022/01/13 03:38:37;;;;;;;;;;;;;;;6.39;58.56;103040.78;5030415;28;6883;-70
2022/01/13 03:41:03;;;;;;;;;;;;;;;6.37;58.30;103038.78;5030719;28;7059;-70
2022/01/13 03:43:29;;;;;;;;;;;;;;;6.36;58.59;103044.63;5031614;28;7257;-70
2022/01/13 03:45:55;;;;;;;;;;;;;;;6.34;58.82;103043.56;5013021;28;6796;-70
2022/01/13 03:48:21;;;;;;;;;;;;;;;6.35;58.72;103051.38;5031179;28;7024;-70
2022/01/13 03:50:47;;;;;;;;;;;;;;;6.37;59.00;103055.00;4999291;28;8035;-70
2022/01/13 03:53:31;;;;;;;;;;;;;;;6.37;58.54;103054.09;5051284;28;7213;-70
2022/01/13 03:56:52;;;;;;;;;;;;;;;6.33;58.54;103046.88;5049458;28;6922;-70
2022/01/13 04:00:12;;;;;;;;;;;;;;;6.27;58.81;103049.66;5050762;28;7238;-70
2022/01/13 04:02:37;;;;;;;;;;;;;;;6.21;59.14;103049.91;5037098;28;7133;-70
2022/01/13 04:05:03;;;;;;;;;;;;;;;6.20;59.06;103047.19;5031426;28;7253;-70
2022/01/13 04:07:29;;;;;;;;;;;;;;;6.18;58.83;103049.56;5032253;28;6904;-70
2022/01/13 04:09:54;;;;;;;;;;;;;;;6.15;58.86;103036.50;5049887;28;7146;-70
2022/01/13 04:12:23;;;;;;;;;;;;;;;6.14;58.94;103044.88;5045948;28;6824;-70
2022/01/13 04:14:57;;;;;;;;;;;;;;;6.14;59.07;103037.22;5047102;28;7026;-70
2022/01/13 04:17:25;;;;;;;;;;;;;;;6.15;59.26;103049.22;5033246;28;7023;-70
2022/01/13 04:19:52;;;;;;;;;;;;;;;6.15;59.02;103043.25;5048997;28;6812;-70
2022/01/13 04:22:18;;;;;;;;;;;;;;;6.15;59.15;103049.22;5029988;28;6971;-70
2022/01/13 04:24:50;;;;;;;;;;;;;;;6.16;59.14;103052.69;5032134;28;7881;-70
2022/01/13 04:27:26;;;;;;;;;;;;;;;6.18;59.31;103052.13;5061656;28;7027;-70
2022/01/13 04:32:38;;;;;;;;;;;;;;;6.20;59.00;103045.53;5035371;28;7310;-70
2022/01/13 04:35:04;;;;;;;;;;;;;;;6.24;59.11;103049.34;5033244;28;6816;-70
2022/01/13 04:37:30;;;;;;;;;;;;;;;6.23;59.33;103033.13;5033809;28;7250;-70
2022/01/13 04:39:56;;;;;;;;;;;;;;;6.23;59.01;103038.22;5026913;28;6803;-70
2022/01/13 04:42:22;;;;;;;;;;;;;;;6.21;59.08;103034.63;5014914;28;7353;-70
2022/01/13 04:44:48;;;;;;;;;;;;;;;6.18;59.24;103036.84;5032088;28;6978;-70
2022/01/13 04:47:13;;;;;;;;;;;;;;;6.18;58.98;103034.28;5031762;28;6870;-71
2022/01/13 04:49:39;;;;;;;;;;;;;;;6.16;58.74;103034.84;5032633;28;6883;-70
2022/01/13 04:52:05;;;;;;;;;;;;;;;6.13;59.19;103031.97;5034011;28;6782;-70
2022/01/13 04:54:31;;;;;;;;;;;;;;;6.10;59.21;103028.34;5028510;28;7263;-70
2022/01/13 04:57:16;;;;;;;;;;;;;;;6.10;59.06;103027.47;5019833;28;6930;-70
2022/01/13 04:59:43;;;;;;;;;;;;;;;6.10;59.00;103030.00;5047852;28;6827;-70
2022/01/13 05:02:09;;;;;;;;;;;;;;;6.09;59.13;103035.84;5030972;28;6824;-70
2022/01/13 05:04:35;;;;;;;;;;;;;;;6.08;58.99;103036.56;5030045;28;6807;-70
2022/01/13 05:07:00;;;;;;;;;;;;;;;6.08;59.04;103032.38;5063583;28;7079;-70
2022/01/13 05:09:26;;;;;;;;;;;;;;;6.07;59.24;103030.56;5061928;28;6989;-70
2022/01/13 05:11:52;;;;;;;;;;;;;;;6.05;58.92;103031.13;5033191;28;6953;-70
2022/01/13 05:14:17;;;;;;;;;;;;;;;6.03;59.42;103030.06;5033502;28;6890;-70
2022/01/13 05:17:08;;;;;;;;;;;;;;;6.00;59.17;103035.69;5017708;28;7066;-70
2022/01/13 05:19:39;;;;;;;;;;;;;;;5.96;59.29;103026.81;5020023;28;7195;-70
2022/01/13 05:24:36;;;;;;;;;;;;;;;5.93;59.60;103016.31;5033059;28;6823;-70
2022/01/13 05:27:02;;;;;;;;;;;;;;;5.90;59.23;103009.97;5031220;28;6902;-70
2022/01/13 05:29:28;;;;;;;;;;;;;;;5.86;59.24;103008.72;5030280;28;6812;-70
2022/01/13 05:31:54;;;;;;;;;;;;;;;5.83;59.56;103013.50;5047989;28;7207;-70
2022/01/13 05:34:19;;;;;;;;;;;;;;;5.81;59.39;103017.53;5029312;28;6803;-70
2022/01/13 05:36:45;;;;;;;;;;;;;;;5.78;59.49;103014.63;5029591;28;7024;-70
2022/01/13 05:39:11;;;;;;;;;;;;;;;5.75;59.31;103015.22;5029493;28;7154;-70
2022/01/13 05:41:38;;;;;;;;;;;;;;;5.74;59.89;103012.50;5012869;28;8365;-70
2022/01/13 05:44:04;;;;;;;;;;;;;;;5.74;59.43;103002.31;5032064;28;8407;-70
2022/01/13 05:46:30;;;;;;;;;;;;;;;5.73;59.73;103006.47;4996059;28;8335;-70
2022/01/13 05:48:56;;;;;;;;;;;;;;;5.73;59.72;103003.06;5047356;28;7746;-70
2022/01/13 05:51:23;;;;;;;;;;;;;;;5.72;59.71;103001.25;5029260;28;6993;-70
2022/01/13 05:53:49;;;;;;;;;;;;;;;5.70;59.40;103002.00;5048063;28;6807;-70
2022/01/13 05:56:15;;;;;;;;;;;;;;;5.68;59.39;102997.47;5031488;28;7064;-70
2022/01/13 05:58:41;;;;;;;;;;;;;;;5.65;59.54;103002.19;5029176;28;6807;-70
2022/01/13 06:01:07;;;;;;;;;;;;;;;5.64;59.76;102996.22;5045997;28;6879;-70
2022/01/13 06:03:33;;;;;;;;;;;;;;;5.62;59.87;103005.31;5027812;28;6887;-70
2022/01/13 06:05:59;;;;;;;;;;;;;;;5.61;59.58;103011.16;5028868;28;6791;-70
2022/01/13 06:08:25;;;;;;;;;;;;;;;5.59;59.98;103007.50;5027639;28;6808;-70
2022/01/13 06:10:50;;;;;;;;;;;;;;;5.59;59.58;103009.16;5028648;28;7851;-70
2022/01/13 06:13:16;;;;;;;;;;;;;;;5.59;60.20;103012.59;5029314;28;6846;-70
2022/01/13 06:15:43;;;;;;;;;;;;;;;5.60;60.31;103004.25;5032318;28;6894;-70
2022/01/13 06:18:15;;;;;;;;;;;;;;;5.63;59.98;103009.69;5012601;28;6882;-70
2022/01/13 06:20:42;;;;;;;;;;;;;;;5.65;59.87;103005.66;5031277;28;7213;-70
2022/01/13 06:23:08;;;;;;;;;;;;;;;5.63;59.85;102999.50;5032181;28;7190;-70
2022/01/13 06:25:37;;;;;;;;;;;;;;;5.61;59.89;103003.53;5066831;28;7891;-70
2022/01/13 06:28:04;;;;;;;;;;;;;;;5.58;59.89;102998.06;5039140;28;6891;-70
2022/01/13 06:30:30;;;;;;;;;;;;;;;5.57;60.24;102993.72;5031754;28;7010;-70
2022/01/13 06:32:57;;;;;;;;;;;;;;;5.60;60.08;102993.16;5041140;28;6819;-70
2022/01/13 06:35:23;;;;;;;;;;;;;;;5.59;59.65;102996.44;5052263;28;6804;-70
2022/01/13 06:37:49;;;;;;;;;;;;;;;5.55;59.29;102995.19;5034777;28;6833;-70
2022/01/13 06:40:15;;;;;;;;;;;;;;;5.51;59.31;102998.16;5050098;28;6932;-70
2022/01/13 06:42:41;;;;;;;;;;;;;;;5.44;59.64;102995.66;5034808;28;7515;-70
2022/01/13 06:45:10;;;;;;;;;;;;;;;5.38;59.91;102990.81;5018814;28;7170;-70
2022/01/13 06:47:40;;;;;;;;;;;;;;;5.33;59.58;102997.00;5031988;28;7947;-70
2022/01/13 06:50:08;;;;;;;;;;;;;;;5.28;59.78;102994.88;5041479;28;8125;-70
2022/01/13 06:52:34;;;;;;;;;;;;;;;5.23;59.64;102992.56;5018627;28;7667;-70
2022/01/13 06:55:00;;;;;;;;;;;;;;;5.19;59.71;102998.94;5034649;28;7042;-70
2022/01/13 06:57:25;;;;;;;;;;;;;;;5.16;59.43;103005.31;5035211;28;6964;-70
2022/01/13 06:59:51;;;;;;;;;;;;;;;5.15;59.82;103001.84;5050059;28;6950;-70
2022/01/13 07:02:17;;;;;;;;;;;;;;;5.12;60.20;103002.44;5033028;28;6787;-70
2022/01/13 07:04:43;;;;;;;;;;;;;;;5.11;59.96;103004.78;5052150;28;6780;-70
2022/01/13 07:07:10;;;;;;;;;;;;;;;5.08;60.34;103004.47;5033765;28;7228;-70
2022/01/13 07:09:35;;;;;;;;;;;;;;;5.05;60.04;103010.09;5050120;28;7430;-70
2022/01/13 07:12:01;;;;;;;;;;;;;;;5.02;60.21;103011.38;5051643;28;6793;-70
2022/01/13 07:14:27;;;;;;;;;;;;;;;4.98;59.63;103013.59;5051235;28;6871;-70
2022/01/13 07:16:52;;;;;;;;;;;;;;;4.95;59.87;103014.88;5051485;28;6858;-70
2022/01/13 07:19:18;;;;;;;;;;;;;;;4.95;59.99;103017.41;5033763;28;6859;-70
2022/01/13 07:21:45;;;;;;;;;;;;;;;4.90;60.20;103023.59;5031867;28;7312;-70
2022/01/13 07:24:11;;;;;;;;;;;;;;;4.87;60.15;103019.06;5037250;28;7022;-70
2022/01/13 07:26:37;;;;;;;;;;;;;;;4.84;59.59;103016.19;5033499;28;6808;-70
2022/01/13 07:29:07;;;;;;;;;;;;;;;4.84;59.85;103024.75;5032727;28;7077;-70
2022/01/13 07:31:34;;;;;;;;;;;;;;;4.84;60.26;103026.38;5018304;28;6799;-70
2022/01/13 07:33:59;;;;;;;;;;;;;;;4.82;60.35;103033.81;5032450;28;6815;-70
2022/01/13 07:36:25;;;;;;;;;;;;;;;4.82;59.80;103030.38;5034163;28;6792;-70
2022/01/13 07:38:51;;;;;;;;;;;;;;;4.80;59.90;103037.81;5050332;28;6871;-70
2022/01/13 07:41:17;;;;;;;;;;;;;;;4.81;60.41;103038.72;5015417;28;8025;-70
2022/01/13 07:43:47;;;;;;;;;;;;;;;4.81;59.70;103039.63;5048123;28;7148;-70
2022/01/13 07:46:13;;;;;;;;;;;;;;;4.84;60.23;103034.91;5031935;28;6823;-70
2022/01/13 07:48:39;;;;;;;;;;;;;;;4.86;59.96;103038.53;5014622;28;7251;-70
2022/01/13 07:51:05;;;;;;;;;;;;;;;4.86;60.38;103043.59;5014832;28;7150;-70
2022/01/13 07:53:30;;;;;;;;;;;;;;;4.87;60.50;103039.41;5028953;28;6779;-70
2022/01/13 07:55:56;;;;;;;;;;;;;;;4.89;60.09;103042.13;5028456;28;7097;-70
2022/01/13 07:58:22;;;;;;;;;;;;;;;4.87;59.97;103034.31;5026705;28;6872;-70
2022/01/13 08:00:47;;;;;;;;;;;;;;;4.86;60.14;103033.44;5028404;28;7267;-70
2022/01/13 08:03:13;;;;;;;;;;;;;;;4.90;59.77;103038.84;5046482;28;6942;-71
2022/01/13 08:05:39;;;;;;;;;;;;;;;4.92;59.57;103039.94;5045752;28;6808;-70
2022/01/13 08:08:05;;;;;;;;;;;;;;;4.92;59.65;103038.31;5026934;28;6962;-70
2022/01/13 08:10:31;;;;;;;;;;;;;;;4.97;60.32;103036.28;5011404;28;6937;-70
2022/01/13 08:12:56;;;;;;;;;;;;;;;4.99;60.05;103035.72;5024831;28;6784;-70
2022/01/13 08:15:23;;;;;;;;;;;;;;;5.03;60.29;103042.06;5025071;28;6799;-70
2022/01/13 08:20:34;;;;;;;;;;;;;;;5.12;60.43;103052.38;5043718;28;8293;-70
2022/01/13 08:23:01;;;;;;;;;;;;;;;5.16;59.74;103040.91;5027427;28;8441;-70
2022/01/13 08:25:28;;;;;;;;;;;;;;;5.19;60.52;103048.88;5014548;28;7159;-70
2022/01/13 08:27:54;;;;;;;;;;;;;;;5.20;60.20;103040.50;5027156;28;6807;-70
2022/01/13 08:30:21;;;;;;;;;;;;;;;5.22;59.66;103047.56;5028814;28;6823;-70
2022/01/13 08:32:46;;;;;;;;;;;;;;;5.21;60.12;103047.41;5009696;28;7887;-70
2022/01/13 08:35:13;;;;;;;;;;;;;;;5.19;59.96;103051.41;5028926;28;7175;-70
2022/01/13 08:37:40;;;;;;;;;;;;;;;5.15;59.49;103052.69;5026187;28;6791;-70
2022/01/13 08:40:10;;;;;;;;;;;;;;;5.14;59.99;103054.34;5040877;28;7254;-70
2022/01/13 08:42:36;;;;;;;;;;;;;;;5.18;59.66;103064.84;5030250;28;6820;-70
2022/01/13 08:45:08;;;;;;;;;;;;;;;5.22;59.77;103065.38;5046796;28;7006;-69
2022/01/13 08:47:34;;;;;;;;;;;;;;;5.26;59.97;103066.63;5029366;28;6961;-70
2022/01/13 08:50:00;;;;;;;;;;;;;;;5.30;59.98;103068.78;5035043;28;6902;-70
2022/01/13 08:52:26;;;;;;;;;;;;;;;5.36;60.12;103061.84;5053665;28;6990;-70
2022/01/13 08:54:55;;;;;;;;;;;;;;;5.43;59.39;103063.44;5052623;28;7132;-70
2022/01/13 08:57:22;;;;;;;;;;;;;;;5.48;59.88;103061.41;5049751;28;6851;-70
2022/01/13 08:59:49;;;;;;;;;;;;;;;5.50;59.72;103058.28;5053077;28;7219;-70
2022/01/13 09:02:14;;;;;;;;;;;;;;;5.52;59.64;103061.03;5036733;28;7016;-70
2022/01/13 09:04:40;;;;;;;;;;;;;;;5.58;59.47;103070.97;5049982;28;6955;-70
2022/01/13 09:07:06;;;;;;;;;;;;;;;5.59;59.35;103063.50;5019316;28;7235;-70
2022/01/13 09:09:32;;;;;;;;;;;;;;;5.60;59.34;103066.94;5053105;28;6803;-70
2022/01/13 09:11:57;;;;;;;;;;;;;;;5.57;59.22;103067.50;5052279;28;6902;-72
2022/01/13 09:14:26;;;;;;;;;;;;;;;5.50;59.34;103072.63;5054577;28;6979;-70
2022/01/13 09:16:53;;;;;;;;;;;;;;;5.47;58.83;103060.50;5037879;28;7285;-70
2022/01/13 09:19:19;;;;;;;;;;;;;;;5.44;59.40;103067.78;5034872;28;6815;-70
2022/01/13 09:21:48;;;;;;;;;;;;;;;5.44;59.33;103066.88;5037902;28;7292;-70
2022/01/13 09:24:17;;;;;;;;;;;;;;;5.43;59.03;103065.97;5053067;28;6985;-70
2022/01/13 09:26:45;;;;;;;;;;;;;;;5.45;59.13;103068.69;5039159;28;7126;-69
2022/01/13 09:29:12;;;;;;;;;;;;;;;5.47;59.01;103069.75;5031236;28;8126;-69
2022/01/13 09:31:41;;;;;;;;;;;;;;;5.51;59.62;103071.94;5036805;28;7004;-69
2022/01/13 09:34:11;;;;;;;;;;;;;;;5.52;59.14;103066.09;5036175;28;7266;-70
2022/01/13 09:36:37;;;;;;;;;;;;;;;5.56;59.57;103063.16;5018753;28;6804;-70
2022/01/13 09:39:07;;;;;;;;;;;;;;;5.61;59.42;103069.69;5032358;28;6820;-70
2022/01/13 09:41:34;;;;;;;;;;;;;;;5.66;59.11;103066.00;5049948;28;7263;-70
2022/01/13 09:44:04;;;;;;;;;;;;;;;5.70;59.37;103075.78;5051816;28;7019;-70
2022/01/13 09:46:32;;;;;;;;;;;;;;;5.76;59.39;103073.00;5034532;28;6955;-70
2022/01/13 09:49:02;;;;;;;;;;;;;;;5.82;60.03;103078.75;5035668;28;6857;-70
2022/01/13 09:51:29;;;;;;;;;;;;;;;5.92;59.25;103082.31;5065372;28;8412;-70
2022/01/13 09:53:55;;;;;;;;;;;;;;;5.98;59.36;103085.56;5039195;28;6903;-70
2022/01/13 09:56:21;;;;;;;;;;;;;;;6.05;59.31;103092.25;5018659;28;6807;-70
2022/01/13 09:58:47;;;;;;;;;;;;;;;6.10;58.98;103088.56;5034582;28;7202;-70
2022/01/13 10:01:15;;;;;;;;;;;;;;;6.17;59.13;103085.06;5035023;28;7165;-70
2022/01/13 10:03:41;;;;;;;;;;;;;;;6.22;59.16;103081.34;5034570;28;6958;-70
2022/01/13 10:06:20;;;;;;;;;;;;;;;6.30;59.04;103079.66;5065587;28;6989;-70
2022/01/13 10:08:51;;;;;;;;;;;;;;;6.34;58.97;103072.50;5017344;28;7343;-70
2022/01/13 10:11:39;;;;;;;;;;;;;;;6.39;58.97;103071.34;5015705;28;7323;-70
2022/01/13 10:14:10;;;;;;;;;;;;;;;6.47;59.45;103077.28;5052947;28;6818;-70
2022/01/13 10:16:45;;;;;;;;;;;;;;;6.69;59.68;103076.13;5051746;28;6893;-70
2022/01/13 10:19:42;;;;;;;;;;;;;;;7.07;60.38;103069.06;5038837;28;7153;-70
2022/01/13 10:22:19;;;;;;;;;;;;;;;7.56;59.20;103072.38;5064142;28;6925;-70
2022/01/13 10:24:50;;;;;;;;;;;;;;;8.16;59.50;103060.59;5020652;28;10082;-70
2022/01/13 10:27:35;;;;;;;;;;;;;;;8.81;57.03;103057.56;5037465;28;6890;-70
2022/01/13 10:30:25;;;;;;;;;;;;;;;9.44;56.47;103060.16;5031068;28;6799;-70
2022/01/13 10:32:53;;;;;;;;;;;;;;;9.98;55.30;103056.63;5030377;28;7003;-70
2022/01/13 10:35:22;;;;;;;;;;;;;;;10.38;55.07;103054.25;5029065;28;6807;-70
2022/01/13 10:37:57;;;;;;;;;;;;;;;10.78;54.69;103064.69;5029410;28;7061;-70
2022/01/13 10:40:33;;;;;;;;;;;;;;;11.27;53.75;103065.63;5014032;28;6820;-70
2022/01/13 10:45:49;;;;;;;;;;;;;;;12.50;51.91;103052.84;5034530;28;7240;-70
2022/01/13 10:48:30;;;;;;;;;;;;;;;13.24;50.62;103051.84;5043708;28;6895;-70
2022/01/13 10:51:04;;;;;;;;;;;;;;;13.80;48.18;103043.31;5016010;28;7100;-70
2022/01/13 10:53:38;;;;;;;;;;;;;;;14.32;48.11;103040.34;5030770;28;7213;-72
2022/01/13 10:56:09;;;;;;;;;;;;;;;14.76;46.27;103041.84;5031484;28;6890;-70
2022/01/13 10:59:01;;;;;;;;;;;;;;;15.16;45.86;103041.22;5012463;28;7275;-70
2022/01/13 11:01:36;;;;;;;;;;;;;;;15.57;45.35;103027.78;5058001;28;6899;-70
2022/01/13 11:04:15;;;;;;;;;;;;;;;16.01;45.06;103031.63;5047496;28;7026;-70
2022/01/13 11:06:41;;;;;;;;;;;;;;;16.46;44.17;103031.09;5052009;28;7075;-70
2022/01/13 11:09:16;;;;;;;;;;;;;;;16.90;43.53;103024.41;5027935;28;6898;-70
2022/01/13 11:11:45;;;;;;;;;;;;;;;17.21;42.40;103027.28;5016039;28;7347;-70
2022/01/13 11:14:21;;;;;;;;;;;;;;;17.45;41.62;103011.47;5030284;28;6925;-70
2022/01/13 11:16:47;;;;;;;;;;;;;;;17.76;40.96;103007.25;5049690;28;7068;-70
2022/01/13 11:19:17;;;;;;;;;;;;;;;18.06;40.07;103012.53;5046462;28;6914;-70
2022/01/13 11:21:44;;;;;;;;;;;;;;;18.28;39.73;103011.16;5014057;28;7050;-70
2022/01/13 11:24:11;;;;;;;;;;;;;;;18.38;39.62;102999.59;5032070;28;6829;-70
2022/01/13 11:26:37;;;;;;;;;;;;;;;18.49;39.11;102998.50;5030333;28;7011;-70
2022/01/13 11:29:04;;;;;;;;;;;;;;;18.62;38.78;102994.91;5031666;28;7844;-70
2022/01/13 11:31:30;;;;;;;;;;;;;;;18.73;38.05;102991.22;5030829;28;6804;-70
2022/01/13 11:33:57;;;;;;;;;;;;;;;18.96;38.52;102983.78;5016850;28;7054;-70
2022/01/13 11:36:25;;;;;;;;;;;;;;;19.25;37.91;102971.50;5030289;28;6831;-70
2022/01/13 11:39:00;;;;;;;;;;;;;;;19.46;36.88;102977.72;5030759;28;6804;-71
2022/01/13 11:41:26;;;;;;;;;;;;;;;19.67;36.60;102967.56;5031194;28;7222;-70
2022/01/13 11:43:52;;;;;;;;;;;;;;;19.88;36.32;102966.84;5030279;28;6982;-70
2022/01/13 11:46:26;;;;;;;;;;;;;;;20.02;36.04;102965.88;5032461;28;6811;-70
2022/01/13 11:49:01;;;;;;;;;;;;;;;20.14;36.07;102960.41;5023903;28;7097;-71
2022/01/13 11:51:39;;;;;;;;;;;;;;;20.28;35.25;102952.34;5031849;28;6815;-71
2022/01/13 11:54:05;;;;;;;;;;;;;;;20.39;35.16;102941.63;5032120;28;6963;-70
2022/01/13 11:56:31;;;;;;;;;;;;;;;20.51;34.62;102945.66;5036205;28;6944;-70
2022/01/13 11:58:58;;;;;;;;;;;;;;;20.64;34.76;102937.56;5030059;28;8097;-70
2022/01/13 12:01:25;;;;;;;;;;;;;;;20.75;34.53;102929.34;5033377;28;6792;-70
2022/01/13 12:04:09;;;;;;;;;;;;;;;20.81;33.78;102919.22;5034093;28;6796;-70
2022/01/13 12:06:51;;;;;;;;;;;;;;;20.87;33.71;102919.56;5049749;28;6811;-70
2022/01/13 12:09:25;;;;;;;;;;;;;;;20.96;33.58;102916.47;5032475;28;7126;-70
2022/01/13 12:11:55;;;;;;;;;;;;;;;20.97;33.17;102913.03;5048838;28;6816;-70
2022/01/13 12:14:27;;;;;;;;;;;;;;;20.92;32.91;102910.22;5065373;28;6823;-71
2022/01/13 12:17:06;;;;;;;;;;;;;;;20.85;32.94;102910.75;5046678;28;6812;-71
2022/01/13 12:19:37;;;;;;;;;;;;;;;20.33;33.29;102903.97;5032167;28;7104;-70
2022/01/13 12:22:14;;;;;;;;;;;;;;;19.38;34.20;102907.13;5032824;28;7035;-70
2022/01/13 12:24:57;;;;;;;;;;;;;;;18.21;34.57;102907.78;5034796;28;6823;-70
2022/01/13 12:27:48;;;;;;;;;;;;;;;16.94;35.66;102905.56;5051110;28;6819;-70
2022/01/13 12:30:21;;;;;;;;;;;;;;;16.02;36.92;102905.78;5032364;28;7089;-70
2022/01/13 12:32:49;;;;;;;;;;;;;;;15.24;37.60;102904.09;5033958;28;7069;-70
2022/01/13 12:35:21;;;;;;;;;;;;;;;14.61;38.02;102908.28;5031474;28;6887;-70
2022/01/13 12:38:06;;;;;;;;;;;;;;;14.08;39.11;102908.75;5050380;28;7210;-70
2022/01/13 12:40:39;;;;;;;;;;;;;;;13.66;39.18;102909.16;5032698;28;6819;-70
2022/01/13 12:46:22;;;;;;;;;;;;;;;13.05;40.46;102913.94;5036800;28;6824;-70
2022/01/13 12:48:55;;;;;;;;;;;;;;;12.86;40.58;102909.00;5013674;28;7313;-70
2022/01/13 12:51:25;;;;;;;;;;;;;;;12.71;41.74;102903.53;5030500;28;7388;-70
2022/01/13 12:53:53;;;;;;;;;;;;;;;12.58;41.34;102902.56;5032526;28;6926;-72
2022/01/13 12:56:24;;;;;;;;;;;;;;;12.50;41.89;102898.50;5029486;28;6902;-70
2022/01/13 12:58:55;;;;;;;;;;;;;;;12.44;42.29;102893.75;5063427;28;6812;-70
2022/01/13 13:01:29;;;;;;;;;;;;;;;12.42;42.27;102894.41;5029811;28;6929;-70
2022/01/13 13:04:13;;;;;;;;;;;;;;;12.38;42.69;102893.25;5045460;28;6807;-70
2022/01/13 13:06:46;;;;;;;;;;;;;;;12.35;42.57;102891.31;5030502;28;7281;-71
2022/01/13 13:09:18;;;;;;;;;;;;;;;12.33;42.64;102895.44;5026136;28;6815;-71
2022/01/13 13:11:55;;;;;;;;;;;;;;;12.32;42.14;102892.78;5028775;28;7662;-72
2022/01/13 13:14:41;;;;;;;;;;;;;;;12.30;42.69;102897.78;5027888;28;6819;-72
2022/01/13 13:17:07;;;;;;;;;;;;;;;12.28;42.08;102896.78;5026476;28;6816;-72
2022/01/13 13:19:39;;;;;;;;;;;;;;;12.27;42.02;102888.91;5043854;28;6874;-72
2022/01/13 13:22:07;;;;;;;;;;;;;;;12.25;42.16;102890.47;5023003;28;6952;-72
2022/01/13 13:24:40;;;;;;;;;;;;;;;12.24;42.79;102881.84;5043147;28;6875;-72
2022/01/13 13:27:05;;;;;;;;;;;;;;;12.26;42.36;102888.00;5029724;28;7891;-72
2022/01/13 13:29:31;;;;;;;;;;;;;;;12.25;42.22;102886.22;5042578;28;6874;-72
2022/01/13 13:31:57;;;;;;;;;;;;;;;12.24;42.36;102879.28;5028679;28;6833;-72
2022/01/13 13:34:30;;;;;;;;;;;;;;;12.24;41.95;102871.56;5032128;28;7066;-72
2022/01/13 13:36:56;;;;;;;;;;;;;;;12.23;42.51;102869.78;5029758;28;7021;-72
2022/01/13 13:39:24;;;;;;;;;;;;;;;12.23;42.88;102864.63;5045721;28;7888;-72